sensor_id;sensor_type;location;lat;lon;timestamp;temperature;humidity
45329;DHT22;31063;48.356;10.896;2023-06-14T00:01:18;16.50;82.00
45329;DHT22;31063;48.356;10.896;2023-06-14T00:03:45;16.40;84.50
45329;DHT22;31063;48.356;10.896;2023-06-14T00:06:13;16.40;83.30
45329;DHT22;31063;48.356;10.896;2023-06-14T00:08:38;16.30;82.90
45329;DHT22;31063;48.356;10.896;2023-06-14T00:11:06;16.30;85.10
45329;DHT22;31063;48.356;10.896;2023-06-14T00:13:32;16.30;86.10
45329;DHT22;31063;48.356;10.896;2023-06-14T00:15:58;16.20;86.70
45329;DHT22;31063;48.356;10.896;2023-06-14T00:18:23;16.20;86.40
45329;DHT22;31063;48.356;10.896;2023-06-14T00:20:49;16.20;87.30
45329;DHT22;31063;48.356;10.896;2023-06-14T00:23:16;16.10;87.10
45329;DHT22;31063;48.356;10.896;2023-06-14T00:25:41;16.10;87.90
45329;DHT22;31063;48.356;10.896;2023-06-14T00:28:07;16.10;90.00
45329;DHT22;31063;48.356;10.896;2023-06-14T00:30:33;16.00;91.70
45329;DHT22;31063;48.356;10.896;2023-06-14T00:32:59;16.00;92.00
45329;DHT22;31063;48.356;10.896;2023-06-14T00:35:24;16.00;92.50
45329;DHT22;31063;48.356;10.896;2023-06-14T00:37:50;16.00;92.80
45329;DHT22;31063;48.356;10.896;2023-06-14T00:40:16;15.90;93.30
45329;DHT22;31063;48.356;10.896;2023-06-14T00:42:42;15.90;94.00
45329;DHT22;31063;48.356;10.896;2023-06-14T00:45:08;15.80;94.70
45329;DHT22;31063;48.356;10.896;2023-06-14T00:47:35;15.80;95.50
45329;DHT22;31063;48.356;10.896;2023-06-14T00:50:01;15.80;96.10
45329;DHT22;31063;48.356;10.896;2023-06-14T00:52:27;15.70;97.10
45329;DHT22;31063;48.356;10.896;2023-06-14T00:54:54;15.70;97.40
45329;DHT22;31063;48.356;10.896;2023-06-14T00:57:20;15.70;96.70
45329;DHT22;31063;48.356;10.896;2023-06-14T00:59:49;15.70;96.40
45329;DHT22;31063;48.356;10.896;2023-06-14T01:02:17;15.60;96.20
45329;DHT22;31063;48.356;10.896;2023-06-14T01:04:46;15.60;96.50
45329;DHT22;31063;48.356;10.896;2023-06-14T01:13:03;15.50;96.00
45329;DHT22;31063;48.356;10.896;2023-06-14T01:15:31;15.50;97.10
45329;DHT22;31063;48.356;10.896;2023-06-14T01:17:57;15.40;98.30
45329;DHT22;31063;48.356;10.896;2023-06-14T01:20:37;15.40;99.10
45329;DHT22;31063;48.356;10.896;2023-06-14T01:23:03;15.30;99.70
45329;DHT22;31063;48.356;10.896;2023-06-14T01:25:28;15.30;99.90
45329;DHT22;31063;48.356;10.896;2023-06-14T01:28:03;15.30;99.90
45329;DHT22;31063;48.356;10.896;2023-06-14T01:30:30;15.30;99.90
45329;DHT22;31063;48.356;10.896;2023-06-14T01:32:57;15.20;99.90
45329;DHT22;31063;48.356;10.896;2023-06-14T01:35:23;15.20;99.90
45329;DHT22;31063;48.356;10.896;2023-06-14T01:37:50;15.20;99.90
45329;DHT22;31063;48.356;10.896;2023-06-14T01:40:18;15.10;99.90
45329;DHT22;31063;48.356;10.896;2023-06-14T01:42:46;15.10;99.90
45329;DHT22;31063;48.356;10.896;2023-06-14T01:45:14;15.10;99.90
45329;DHT22;31063;48.356;10.896;2023-06-14T01:47:40;15.00;99.90
45329;DHT22;31063;48.356;10.896;2023-06-14T01:50:07;14.90;99.90
45329;DHT22;31063;48.356;10.896;2023-06-14T01:52:33;14.90;99.90
45329;DHT22;31063;48.356;10.896;2023-06-14T01:54:58;14.90;99.00
45329;DHT22;31063;48.356;10.896;2023-06-14T01:57:29;14.90;99.90
45329;DHT22;31063;48.356;10.896;2023-06-14T01:59:54;14.90;99.90
45329;DHT22;31063;48.356;10.896;2023-06-14T02:02:20;14.80;99.90
45329;DHT22;31063;48.356;10.896;2023-06-14T02:04:46;14.80;99.90
45329;DHT22;31063;48.356;10.896;2023-06-14T02:07:13;14.80;99.90
45329;DHT22;31063;48.356;10.896;2023-06-14T02:09:40;14.80;99.90
45329;DHT22;31063;48.356;10.896;2023-06-14T02:12:06;14.80;99.90
45329;DHT22;31063;48.356;10.896;2023-06-14T02:14:31;14.70;99.90
45329;DHT22;31063;48.356;10.896;2023-06-14T02:16:57;14.70;99.90
45329;DHT22;31063;48.356;10.896;2023-06-14T02:19:23;14.70;99.90
45329;DHT22;31063;48.356;10.896;2023-06-14T02:21:49;14.60;99.90
45329;DHT22;31063;48.356;10.896;2023-06-14T02:24:15;14.60;99.90
45329;DHT22;31063;48.356;10.896;2023-06-14T02:26:41;14.60;99.90
45329;DHT22;31063;48.356;10.896;2023-06-14T02:29:07;14.60;99.90
45329;DHT22;31063;48.356;10.896;2023-06-14T02:31:36;14.60;99.90
45329;DHT22;31063;48.356;10.896;2023-06-14T02:34:02;14.50;99.90
45329;DHT22;31063;48.356;10.896;2023-06-14T02:36:28;14.50;99.90
45329;DHT22;31063;48.356;10.896;2023-06-14T02:38:57;14.50;99.90
45329;DHT22;31063;48.356;10.896;2023-06-14T02:41:25;14.50;99.90
45329;DHT22;31063;48.356;10.896;2023-06-14T02:43:52;14.50;99.90
45329;DHT22;31063;48.356;10.896;2023-06-14T02:46:18;14.50;99.90
45329;DHT22;31063;48.356;10.896;2023-06-14T02:48:43;14.40;99.90
45329;DHT22;31063;48.356;10.896;2023-06-14T02:51:09;14.40;99.90
45329;DHT22;31063;48.356;10.896;2023-06-14T02:53:35;14.40;99.90
45329;DHT22;31063;48.356;10.896;2023-06-14T02:56:02;14.40;99.90
45329;DHT22;31063;48.356;10.896;2023-06-14T02:58:29;14.30;99.90
45329;DHT22;31063;48.356;10.896;2023-06-14T03:00:55;14.20;99.90
45329;DHT22;31063;48.356;10.896;2023-06-14T03:03:21;14.20;99.90
45329;DHT22;31063;48.356;10.896;2023-06-14T03:05:48;14.10;99.90
45329;DHT22;31063;48.356;10.896;2023-06-14T03:08:15;14.10;99.90
45329;DHT22;31063;48.356;10.896;2023-06-14T03:10:47;14.00;99.90
45329;DHT22;31063;48.356;10.896;2023-06-14T03:13:13;14.00;99.90
45329;DHT22;31063;48.356;10.896;2023-06-14T03:15:39;14.00;99.90
45329;DHT22;31063;48.356;10.896;2023-06-14T03:18:08;13.90;99.90
45329;DHT22;31063;48.356;10.896;2023-06-14T03:20:35;13.90;99.90
45329;DHT22;31063;48.356;10.896;2023-06-14T03:23:01;13.90;99.90
45329;DHT22;31063;48.356;10.896;2023-06-14T03:25:27;13.90;99.90
45329;DHT22;31063;48.356;10.896;2023-06-14T03:27:55;13.90;99.90
45329;DHT22;31063;48.356;10.896;2023-06-14T03:30:21;13.90;99.90
45329;DHT22;31063;48.356;10.896;2023-06-14T03:32:46;13.80;99.90
45329;DHT22;31063;48.356;10.896;2023-06-14T03:35:12;13.80;99.90
45329;DHT22;31063;48.356;10.896;2023-06-14T03:37:43;13.70;99.90
45329;DHT22;31063;48.356;10.896;2023-06-14T03:40:09;13.70;99.90
45329;DHT22;31063;48.356;10.896;2023-06-14T03:42:35;13.70;99.90
45329;DHT22;31063;48.356;10.896;2023-06-14T03:45:01;13.70;99.90
45329;DHT22;31063;48.356;10.896;2023-06-14T03:47:26;13.70;99.90
45329;DHT22;31063;48.356;10.896;2023-06-14T03:49:52;13.70;99.90
45329;DHT22;31063;48.356;10.896;2023-06-14T03:52:18;13.70;99.90
45329;DHT22;31063;48.356;10.896;2023-06-14T03:54:43;13.80;99.90
45329;DHT22;31063;48.356;10.896;2023-06-14T03:57:10;13.80;99.90
45329;DHT22;31063;48.356;10.896;2023-06-14T03:59:35;13.80;99.90
45329;DHT22;31063;48.356;10.896;2023-06-14T04:02:02;13.80;99.90
45329;DHT22;31063;48.356;10.896;2023-06-14T04:04:28;13.80;99.90
45329;DHT22;31063;48.356;10.896;2023-06-14T04:06:57;13.80;99.90
45329;DHT22;31063;48.356;10.896;2023-06-14T04:09:24;13.80;99.90
45329;DHT22;31063;48.356;10.896;2023-06-14T04:11:51;13.80;99.90
45329;DHT22;31063;48.356;10.896;2023-06-14T04:14:19;13.80;99.90
45329;DHT22;31063;48.356;10.896;2023-06-14T04:16:46;13.80;99.90
45329;DHT22;31063;48.356;10.896;2023-06-14T04:19:11;13.80;99.90
45329;DHT22;31063;48.356;10.896;2023-06-14T04:21:37;13.80;99.90
45329;DHT22;31063;48.356;10.896;2023-06-14T04:24:03;13.80;99.90
45329;DHT22;31063;48.356;10.896;2023-06-14T04:26:29;13.80;99.90
45329;DHT22;31063;48.356;10.896;2023-06-14T04:28:58;13.70;99.90
45329;DHT22;31063;48.356;10.896;2023-06-14T04:31:29;13.70;99.90
45329;DHT22;31063;48.356;10.896;2023-06-14T04:33:59;13.70;99.90
45329;DHT22;31063;48.356;10.896;2023-06-14T04:36:25;13.70;99.90
45329;DHT22;31063;48.356;10.896;2023-06-14T04:38:53;13.70;99.90
45329;DHT22;31063;48.356;10.896;2023-06-14T04:41:21;13.70;99.90
45329;DHT22;31063;48.356;10.896;2023-06-14T04:43:49;13.80;99.90
45329;DHT22;31063;48.356;10.896;2023-06-14T04:46:15;13.80;99.90
45329;DHT22;31063;48.356;10.896;2023-06-14T04:48:41;13.90;99.90
45329;DHT22;31063;48.356;10.896;2023-06-14T04:51:08;13.90;99.90
45329;DHT22;31063;48.356;10.896;2023-06-14T04:53:34;13.90;99.90
45329;DHT22;31063;48.356;10.896;2023-06-14T04:56:01;14.00;99.90
45329;DHT22;31063;48.356;10.896;2023-06-14T04:58:27;14.10;99.90
45329;DHT22;31063;48.356;10.896;2023-06-14T05:00:54;14.20;99.90
45329;DHT22;31063;48.356;10.896;2023-06-14T05:03:21;14.30;99.90
45329;DHT22;31063;48.356;10.896;2023-06-14T05:05:48;14.40;99.90
45329;DHT22;31063;48.356;10.896;2023-06-14T05:08:13;14.50;99.90
45329;DHT22;31063;48.356;10.896;2023-06-14T05:10:39;14.50;99.90
45329;DHT22;31063;48.356;10.896;2023-06-14T05:13:05;14.60;99.90
45329;DHT22;31063;48.356;10.896;2023-06-14T05:15:30;14.60;99.90
45329;DHT22;31063;48.356;10.896;2023-06-14T05:17:56;14.60;99.90
45329;DHT22;31063;48.356;10.896;2023-06-14T05:20:23;14.60;99.90
45329;DHT22;31063;48.356;10.896;2023-06-14T05:22:52;14.70;99.90
45329;DHT22;31063;48.356;10.896;2023-06-14T05:25:19;14.80;99.90
45329;DHT22;31063;48.356;10.896;2023-06-14T05:27:45;14.90;99.90
45329;DHT22;31063;48.356;10.896;2023-06-14T05:30:11;15.00;99.90
45329;DHT22;31063;48.356;10.896;2023-06-14T05:32:37;15.00;99.90
45329;DHT22;31063;48.356;10.896;2023-06-14T05:35:03;15.10;99.90
45329;DHT22;31063;48.356;10.896;2023-06-14T05:37:29;15.10;99.90
45329;DHT22;31063;48.356;10.896;2023-06-14T05:39:56;15.20;99.90
45329;DHT22;31063;48.356;10.896;2023-06-14T05:42:22;15.30;99.90
45329;DHT22;31063;48.356;10.896;2023-06-14T05:44:47;15.30;99.90
45329;DHT22;31063;48.356;10.896;2023-06-14T05:47:13;15.40;99.90
45329;DHT22;31063;48.356;10.896;2023-06-14T05:49:39;15.40;99.90
45329;DHT22;31063;48.356;10.896;2023-06-14T05:52:05;15.50;99.90
45329;DHT22;31063;48.356;10.896;2023-06-14T05:54:31;15.50;99.90
45329;DHT22;31063;48.356;10.896;2023-06-14T05:56:56;15.70;99.90
45329;DHT22;31063;48.356;10.896;2023-06-14T05:59:29;15.70;99.90
45329;DHT22;31063;48.356;10.896;2023-06-14T06:01:55;15.80;99.90
45329;DHT22;31063;48.356;10.896;2023-06-14T06:04:21;15.80;99.90
45329;DHT22;31063;48.356;10.896;2023-06-14T06:06:46;15.90;99.90
45329;DHT22;31063;48.356;10.896;2023-06-14T06:09:13;16.00;99.90
45329;DHT22;31063;48.356;10.896;2023-06-14T06:11:40;16.00;99.90
45329;DHT22;31063;48.356;10.896;2023-06-14T06:14:06;16.10;99.90
45329;DHT22;31063;48.356;10.896;2023-06-14T06:16:31;16.20;99.90
45329;DHT22;31063;48.356;10.896;2023-06-14T06:18:57;16.20;99.90
45329;DHT22;31063;48.356;10.896;2023-06-14T06:21:23;16.30;99.90
45329;DHT22;31063;48.356;10.896;2023-06-14T06:23:48;16.30;99.90
45329;DHT22;31063;48.356;10.896;2023-06-14T06:26:14;16.40;99.90
45329;DHT22;31063;48.356;10.896;2023-06-14T06:28:40;16.40;99.90
45329;DHT22;31063;48.356;10.896;2023-06-14T06:31:06;16.50;99.90
45329;DHT22;31063;48.356;10.896;2023-06-14T06:33:32;16.60;99.90
45329;DHT22;31063;48.356;10.896;2023-06-14T06:35:57;16.60;99.90
45329;DHT22;31063;48.356;10.896;2023-06-14T06:38:23;16.70;99.90
45329;DHT22;31063;48.356;10.896;2023-06-14T06:40:48;16.80;99.90
45329;DHT22;31063;48.356;10.896;2023-06-14T06:43:14;16.90;99.90
45329;DHT22;31063;48.356;10.896;2023-06-14T06:45:42;17.00;99.90
45329;DHT22;31063;48.356;10.896;2023-06-14T06:48:07;17.00;99.90
45329;DHT22;31063;48.356;10.896;2023-06-14T06:50:35;17.10;99.90
45329;DHT22;31063;48.356;10.896;2023-06-14T06:53:01;17.10;99.90
45329;DHT22;31063;48.356;10.896;2023-06-14T06:55:26;17.20;99.90
45329;DHT22;31063;48.356;10.896;2023-06-14T06:57:52;17.30;99.90
45329;DHT22;31063;48.356;10.896;2023-06-14T07:00:19;17.30;99.90
45329;DHT22;31063;48.356;10.896;2023-06-14T07:02:45;17.30;99.90
45329;DHT22;31063;48.356;10.896;2023-06-14T07:05:11;17.40;99.90
45329;DHT22;31063;48.356;10.896;2023-06-14T07:07:37;17.40;99.90
45329;DHT22;31063;48.356;10.896;2023-06-14T07:10:03;17.50;99.90
45329;DHT22;31063;48.356;10.896;2023-06-14T07:12:30;17.50;99.90
45329;DHT22;31063;48.356;10.896;2023-06-14T07:14:59;17.60;99.90
45329;DHT22;31063;48.356;10.896;2023-06-14T07:17:25;17.70;99.90
45329;DHT22;31063;48.356;10.896;2023-06-14T07:19:50;17.80;99.90
45329;DHT22;31063;48.356;10.896;2023-06-14T07:22:16;17.90;99.90
45329;DHT22;31063;48.356;10.896;2023-06-14T07:24:43;17.90;99.90
45329;DHT22;31063;48.356;10.896;2023-06-14T07:27:08;18.00;99.90
45329;DHT22;31063;48.356;10.896;2023-06-14T07:29:34;18.10;99.90
45329;DHT22;31063;48.356;10.896;2023-06-14T07:32:00;18.10;99.90
45329;DHT22;31063;48.356;10.896;2023-06-14T07:34:26;18.10;99.90
45329;DHT22;31063;48.356;10.896;2023-06-14T07:36:52;18.20;99.90
45329;DHT22;31063;48.356;10.896;2023-06-14T07:39:19;18.30;99.90
45329;DHT22;31063;48.356;10.896;2023-06-14T07:41:45;18.40;99.90
45329;DHT22;31063;48.356;10.896;2023-06-14T07:44:10;18.40;99.70
45329;DHT22;31063;48.356;10.896;2023-06-14T07:46:37;18.50;98.60
45329;DHT22;31063;48.356;10.896;2023-06-14T07:49:03;18.60;99.70
45329;DHT22;31063;48.356;10.896;2023-06-14T07:51:29;18.70;99.90
45329;DHT22;31063;48.356;10.896;2023-06-14T07:53:55;18.80;99.90
45329;DHT22;31063;48.356;10.896;2023-06-14T07:56:21;18.80;99.40
45329;DHT22;31063;48.356;10.896;2023-06-14T07:58:48;18.80;99.20
45329;DHT22;31063;48.356;10.896;2023-06-14T08:01:14;18.90;98.10
45329;DHT22;31063;48.356;10.896;2023-06-14T08:03:40;18.90;97.40
45329;DHT22;31063;48.356;10.896;2023-06-14T08:06:07;19.00;97.70
45329;DHT22;31063;48.356;10.896;2023-06-14T08:08:33;19.00;97.10
45329;DHT22;31063;48.356;10.896;2023-06-14T08:10:58;19.10;97.10
45329;DHT22;31063;48.356;10.896;2023-06-14T08:13:24;19.30;97.10
45329;DHT22;31063;48.356;10.896;2023-06-14T08:15:50;19.30;95.70
45329;DHT22;31063;48.356;10.896;2023-06-14T08:18:15;19.40;95.30
45329;DHT22;31063;48.356;10.896;2023-06-14T08:20:41;19.50;95.10
45329;DHT22;31063;48.356;10.896;2023-06-14T08:23:07;19.60;95.10
45329;DHT22;31063;48.356;10.896;2023-06-14T08:25:34;19.70;94.40
45329;DHT22;31063;48.356;10.896;2023-06-14T08:28:00;19.80;94.10
45329;DHT22;31063;48.356;10.896;2023-06-14T08:30:26;19.80;93.50
45329;DHT22;31063;48.356;10.896;2023-06-14T08:32:51;19.80;92.00
45329;DHT22;31063;48.356;10.896;2023-06-14T08:35:17;19.80;92.20
45329;DHT22;31063;48.356;10.896;2023-06-14T08:37:43;19.90;92.30
45329;DHT22;31063;48.356;10.896;2023-06-14T08:40:22;20.00;92.50
45329;DHT22;31063;48.356;10.896;2023-06-14T08:42:51;20.10;92.70
45329;DHT22;31063;48.356;10.896;2023-06-14T08:45:19;20.10;91.00
45329;DHT22;31063;48.356;10.896;2023-06-14T08:47:45;20.20;90.70
45329;DHT22;31063;48.356;10.896;2023-06-14T08:50:21;20.40;90.90
45329;DHT22;31063;48.356;10.896;2023-06-14T08:52:48;20.40;89.80
45329;DHT22;31063;48.356;10.896;2023-06-14T08:55:18;20.50;86.80
45329;DHT22;31063;48.356;10.896;2023-06-14T08:57:46;20.50;81.20
45329;DHT22;31063;48.356;10.896;2023-06-14T09:00:13;20.60;80.60
45329;DHT22;31063;48.356;10.896;2023-06-14T09:02:40;20.70;78.00
45329;DHT22;31063;48.356;10.896;2023-06-14T09:05:09;20.80;75.40
45329;DHT22;31063;48.356;10.896;2023-06-14T09:07:37;20.90;74.60
45329;DHT22;31063;48.356;10.896;2023-06-14T09:10:14;21.00;68.80
45329;DHT22;31063;48.356;10.896;2023-06-14T09:12:40;21.10;66.30
45329;DHT22;31063;48.356;10.896;2023-06-14T09:15:07;21.10;63.10
45329;DHT22;31063;48.356;10.896;2023-06-14T09:17:38;21.10;66.70
45329;DHT22;31063;48.356;10.896;2023-06-14T09:20:05;21.30;68.60
45329;DHT22;31063;48.356;10.896;2023-06-14T09:22:32;21.30;67.10
45329;DHT22;31063;48.356;10.896;2023-06-14T09:24:58;21.40;61.60
45329;DHT22;31063;48.356;10.896;2023-06-14T09:27:26;21.40;58.80
45329;DHT22;31063;48.356;10.896;2023-06-14T09:29:52;21.50;58.60
45329;DHT22;31063;48.356;10.896;2023-06-14T09:32:18;21.60;59.60
45329;DHT22;31063;48.356;10.896;2023-06-14T09:34:45;21.70;60.80
45329;DHT22;31063;48.356;10.896;2023-06-14T09:37:10;21.80;57.40
45329;DHT22;31063;48.356;10.896;2023-06-14T09:39:49;21.90;55.90
45329;DHT22;31063;48.356;10.896;2023-06-14T09:42:19;21.90;55.80
45329;DHT22;31063;48.356;10.896;2023-06-14T09:44:47;22.00;51.90
45329;DHT22;31063;48.356;10.896;2023-06-14T09:47:15;22.10;51.60
45329;DHT22;31063;48.356;10.896;2023-06-14T09:49:41;22.20;51.60
45329;DHT22;31063;48.356;10.896;2023-06-14T09:52:10;22.30;51.70
45329;DHT22;31063;48.356;10.896;2023-06-14T09:54:41;22.40;52.20
45329;DHT22;31063;48.356;10.896;2023-06-14T09:57:16;22.50;51.00
45329;DHT22;31063;48.356;10.896;2023-06-14T09:59:44;22.70;48.00
45329;DHT22;31063;48.356;10.896;2023-06-14T10:02:27;22.80;46.60
45329;DHT22;31063;48.356;10.896;2023-06-14T10:05:12;22.90;47.20
45329;DHT22;31063;48.356;10.896;2023-06-14T10:08:27;23.00;47.20
45329;DHT22;31063;48.356;10.896;2023-06-14T10:10:27;23.00;47.30
45329;DHT22;31063;48.356;10.896;2023-06-14T10:12:53;23.20;46.80
45329;DHT22;31063;48.356;10.896;2023-06-14T10:18:21;23.40;45.10
45329;DHT22;31063;48.356;10.896;2023-06-14T10:21:04;23.50;44.90
45329;DHT22;31063;48.356;10.896;2023-06-14T10:23:37;23.50;43.20
45329;DHT22;31063;48.356;10.896;2023-06-14T10:26:02;23.60;42.60
45329;DHT22;31063;48.356;10.896;2023-06-14T10:28:28;23.70;43.10
45329;DHT22;31063;48.356;10.896;2023-06-14T10:31:10;23.70;41.20
45329;DHT22;31063;48.356;10.896;2023-06-14T10:33:56;23.70;39.60
45329;DHT22;31063;48.356;10.896;2023-06-14T10:38:58;23.80;40.50
45329;DHT22;31063;48.356;10.896;2023-06-14T10:41:27;23.90;40.00
45329;DHT22;31063;48.356;10.896;2023-06-14T10:46:54;24.10;40.60
45329;DHT22;31063;48.356;10.896;2023-06-14T10:49:20;24.30;38.60
45329;DHT22;31063;48.356;10.896;2023-06-14T10:52:03;24.30;39.00
45329;DHT22;31063;48.356;10.896;2023-06-14T10:54:28;24.50;39.20
45329;DHT22;31063;48.356;10.896;2023-06-14T10:56:54;24.60;39.70
45329;DHT22;31063;48.356;10.896;2023-06-14T10:59:21;24.70;38.70
45329;DHT22;31063;48.356;10.896;2023-06-14T11:04:48;24.50;37.90
45329;DHT22;31063;48.356;10.896;2023-06-14T11:12:27;24.20;36.60
45329;DHT22;31063;48.356;10.896;2023-06-14T11:14:53;24.30;37.30
45329;DHT22;31063;48.356;10.896;2023-06-14T11:17:19;24.10;36.70
45329;DHT22;31063;48.356;10.896;2023-06-14T11:19:45;24.10;36.90
45329;DHT22;31063;48.356;10.896;2023-06-14T11:22:11;24.10;36.40
45329;DHT22;31063;48.356;10.896;2023-06-14T11:24:37;24.10;37.00
45329;DHT22;31063;48.356;10.896;2023-06-14T11:27:03;23.90;37.40
45329;DHT22;31063;48.356;10.896;2023-06-14T11:29:29;23.70;38.00
45329;DHT22;31063;48.356;10.896;2023-06-14T11:31:55;23.70;37.50
45329;DHT22;31063;48.356;10.896;2023-06-14T11:34:20;23.60;38.60
45329;DHT22;31063;48.356;10.896;2023-06-14T11:36:47;23.50;39.40
45329;DHT22;31063;48.356;10.896;2023-06-14T11:39:13;23.60;40.00
45329;DHT22;31063;48.356;10.896;2023-06-14T11:41:40;23.60;40.20
45329;DHT22;31063;48.356;10.896;2023-06-14T11:44:07;23.60;39.70
45329;DHT22;31063;48.356;10.896;2023-06-14T11:46:33;23.70;39.60
45329;DHT22;31063;48.356;10.896;2023-06-14T11:48:58;23.80;40.20
45329;DHT22;31063;48.356;10.896;2023-06-14T11:51:24;23.70;39.60
45329;DHT22;31063;48.356;10.896;2023-06-14T11:53:50;23.60;39.40
45329;DHT22;31063;48.356;10.896;2023-06-14T11:56:16;23.60;39.10
45329;DHT22;31063;48.356;10.896;2023-06-14T11:58:43;23.80;39.20
45329;DHT22;31063;48.356;10.896;2023-06-14T12:01:09;23.90;38.90
45329;DHT22;31063;48.356;10.896;2023-06-14T12:03:34;24.00;39.20
45329;DHT22;31063;48.356;10.896;2023-06-14T12:06:08;24.20;38.60
45329;DHT22;31063;48.356;10.896;2023-06-14T12:08:37;24.30;37.70
45329;DHT22;31063;48.356;10.896;2023-06-14T12:11:06;24.40;38.40
45329;DHT22;31063;48.356;10.896;2023-06-14T12:13:34;24.60;38.50
45329;DHT22;31063;48.356;10.896;2023-06-14T12:15:59;24.60;37.60
45329;DHT22;31063;48.356;10.896;2023-06-14T12:18:37;24.50;36.80
45329;DHT22;31063;48.356;10.896;2023-06-14T12:21:04;24.50;36.50
45329;DHT22;31063;48.356;10.896;2023-06-14T12:23:48;24.70;37.60
45329;DHT22;31063;48.356;10.896;2023-06-14T12:26:18;24.90;38.60
45329;DHT22;31063;48.356;10.896;2023-06-14T12:28:46;25.10;38.50
45329;DHT22;31063;48.356;10.896;2023-06-14T12:31:13;25.20;39.30
45329;DHT22;31063;48.356;10.896;2023-06-14T12:33:40;25.40;38.30
45329;DHT22;31063;48.356;10.896;2023-06-14T12:36:10;25.40;36.30
45329;DHT22;31063;48.356;10.896;2023-06-14T12:38:37;25.50;36.70
45329;DHT22;31063;48.356;10.896;2023-06-14T12:41:03;25.70;37.40
45329;DHT22;31063;48.356;10.896;2023-06-14T12:43:29;25.60;36.20
45329;DHT22;31063;48.356;10.896;2023-06-14T12:45:54;25.60;36.00
45329;DHT22;31063;48.356;10.896;2023-06-14T12:48:20;25.40;35.70
45329;DHT22;31063;48.356;10.896;2023-06-14T12:50:47;25.30;35.70
45329;DHT22;31063;48.356;10.896;2023-06-14T12:53:13;25.20;35.00
45329;DHT22;31063;48.356;10.896;2023-06-14T12:55:38;25.30;35.00
45329;DHT22;31063;48.356;10.896;2023-06-14T12:58:04;25.30;34.90
45329;DHT22;31063;48.356;10.896;2023-06-14T13:00:30;25.40;36.00
45329;DHT22;31063;48.356;10.896;2023-06-14T13:02:59;25.60;35.80
45329;DHT22;31063;48.356;10.896;2023-06-14T13:05:24;25.80;36.20
45329;DHT22;31063;48.356;10.896;2023-06-14T13:07:50;25.90;35.70
45329;DHT22;31063;48.356;10.896;2023-06-14T13:10:16;25.80;35.50
45329;DHT22;31063;48.356;10.896;2023-06-14T13:12:42;25.80;35.50
45329;DHT22;31063;48.356;10.896;2023-06-14T13:15:08;25.90;34.90
45329;DHT22;31063;48.356;10.896;2023-06-14T13:17:35;25.80;34.20
45329;DHT22;31063;48.356;10.896;2023-06-14T13:20:07;25.80;33.90
45329;DHT22;31063;48.356;10.896;2023-06-14T13:22:36;26.00;34.40
45329;DHT22;31063;48.356;10.896;2023-06-14T13:25:04;25.80;32.90
45329;DHT22;31063;48.356;10.896;2023-06-14T13:27:30;25.70;32.80
45329;DHT22;31063;48.356;10.896;2023-06-14T13:29:56;25.80;33.20
45329;DHT22;31063;48.356;10.896;2023-06-14T13:32:22;26.00;33.10
45329;DHT22;31063;48.356;10.896;2023-06-14T13:34:49;26.10;32.60
45329;DHT22;31063;48.356;10.896;2023-06-14T13:37:14;26.00;33.90
45329;DHT22;31063;48.356;10.896;2023-06-14T13:39:40;26.20;34.20
45329;DHT22;31063;48.356;10.896;2023-06-14T13:42:06;26.20;34.20
45329;DHT22;31063;48.356;10.896;2023-06-14T13:44:32;26.20;34.10
45329;DHT22;31063;48.356;10.896;2023-06-14T13:46:57;25.80;33.60
45329;DHT22;31063;48.356;10.896;2023-06-14T13:49:23;25.70;34.10
45329;DHT22;31063;48.356;10.896;2023-06-14T13:51:48;26.00;35.30
45329;DHT22;31063;48.356;10.896;2023-06-14T13:54:14;26.10;34.20
45329;DHT22;31063;48.356;10.896;2023-06-14T13:56:41;26.20;34.00
45329;DHT22;31063;48.356;10.896;2023-06-14T13:59:06;26.10;32.60
45329;DHT22;31063;48.356;10.896;2023-06-14T14:01:32;26.10;32.60
45329;DHT22;31063;48.356;10.896;2023-06-14T14:03:58;26.30;33.10
45329;DHT22;31063;48.356;10.896;2023-06-14T14:06:24;26.30;33.30
45329;DHT22;31063;48.356;10.896;2023-06-14T14:08:50;26.50;33.50
45329;DHT22;31063;48.356;10.896;2023-06-14T14:11:16;26.50;32.50
45329;DHT22;31063;48.356;10.896;2023-06-14T14:13:41;26.50;32.60
45329;DHT22;31063;48.356;10.896;2023-06-14T14:16:07;26.70;33.60
45329;DHT22;31063;48.356;10.896;2023-06-14T14:18:33;26.80;32.40
45329;DHT22;31063;48.356;10.896;2023-06-14T14:20:59;26.80;32.20
45329;DHT22;31063;48.356;10.896;2023-06-14T14:23:26;26.80;32.10
45329;DHT22;31063;48.356;10.896;2023-06-14T14:25:51;26.90;31.80
45329;DHT22;31063;48.356;10.896;2023-06-14T14:28:17;26.90;31.50
45329;DHT22;31063;48.356;10.896;2023-06-14T14:30:45;27.00;31.90
45329;DHT22;31063;48.356;10.896;2023-06-14T14:33:11;27.00;32.40
45329;DHT22;31063;48.356;10.896;2023-06-14T14:35:41;26.80;32.40
45329;DHT22;31063;48.356;10.896;2023-06-14T14:38:07;26.70;32.60
45329;DHT22;31063;48.356;10.896;2023-06-14T14:40:33;26.50;32.90
45329;DHT22;31063;48.356;10.896;2023-06-14T14:42:58;26.50;33.10
45329;DHT22;31063;48.356;10.896;2023-06-14T14:45:24;26.50;33.50
45329;DHT22;31063;48.356;10.896;2023-06-14T14:47:49;26.40;33.30
45329;DHT22;31063;48.356;10.896;2023-06-14T14:50:15;26.30;33.50
45329;DHT22;31063;48.356;10.896;2023-06-14T14:52:41;26.20;33.80
45329;DHT22;31063;48.356;10.896;2023-06-14T14:55:07;26.10;32.70
45329;DHT22;31063;48.356;10.896;2023-06-14T14:57:33;26.10;33.20
45329;DHT22;31063;48.356;10.896;2023-06-14T14:59:58;26.00;33.00
45329;DHT22;31063;48.356;10.896;2023-06-14T15:02:24;25.90;32.90
45329;DHT22;31063;48.356;10.896;2023-06-14T15:04:50;25.80;33.20
45329;DHT22;31063;48.356;10.896;2023-06-14T15:07:15;25.60;33.20
45329;DHT22;31063;48.356;10.896;2023-06-14T15:09:41;25.70;33.30
45329;DHT22;31063;48.356;10.896;2023-06-14T15:12:07;25.70;33.80
45329;DHT22;31063;48.356;10.896;2023-06-14T15:14:33;25.70;33.70
45329;DHT22;31063;48.356;10.896;2023-06-14T15:16:59;25.50;33.00
45329;DHT22;31063;48.356;10.896;2023-06-14T15:19:27;25.70;32.60
45329;DHT22;31063;48.356;10.896;2023-06-14T15:21:52;25.90;33.10
45329;DHT22;31063;48.356;10.896;2023-06-14T15:24:18;26.00;32.70
45329;DHT22;31063;48.356;10.896;2023-06-14T15:26:43;26.00;32.30
45329;DHT22;31063;48.356;10.896;2023-06-14T15:29:09;26.00;32.60
45329;DHT22;31063;48.356;10.896;2023-06-14T15:31:35;26.00;33.20
45329;DHT22;31063;48.356;10.896;2023-06-14T15:34:00;26.00;33.20
45329;DHT22;31063;48.356;10.896;2023-06-14T15:36:26;26.20;32.80